createdAt,value
2019-03-17T00:00:43.330Z,99.99
2019-03-17T00:01:43.324Z,99.99
2019-03-17T00:02:43.317Z,99.99
2019-03-17T00:03:43.311Z,99.99
2019-03-17T00:04:43.530Z,99.99
2019-03-17T00:05:43.299Z,99.99
2019-03-17T00:06:43.291Z,99.99
2019-03-17T00:07:43.305Z,99.99
2019-03-17T00:08:43.281Z,99.99
2019-03-17T00:09:43.273Z,99.99
2019-03-17T00:10:43.268Z,99.99
2019-03-17T00:11:43.261Z,99.99
2019-03-17T00:12:43.254Z,99.99
2019-03-17T00:13:43.247Z,99.99
2019-03-17T00:14:43.241Z,99.99
2019-03-17T00:15:43.235Z,99.99
2019-03-17T00:16:43.229Z,99.99
2019-03-17T00:17:43.254Z,99.99
2019-03-17T00:18:43.222Z,99.99
2019-03-17T00:19:43.211Z,99.99
2019-03-17T00:20:43.204Z,99.99
2019-03-17T00:21:43.198Z,99.99
2019-03-17T00:22:43.189Z,99.99
2019-03-17T00:23:43.185Z,99.99
2019-03-17T00:24:43.182Z,99.99
2019-03-17T00:25:43.171Z,99.99
2019-03-17T00:26:43.163Z,99.99
2019-03-17T00:27:43.157Z,99.99
2019-03-17T00:28:44.345Z,99.99
2019-03-17T00:29:43.153Z,99.99
2019-03-17T00:30:43.139Z,99.99
2019-03-17T00:31:43.132Z,99.99
2019-03-17T00:32:43.130Z,99.99
2019-03-17T00:33:43.125Z,99.99
2019-03-17T00:34:44.412Z,99.99
2019-03-17T00:35:43.106Z,99.99
2019-03-17T00:36:43.101Z,99.99
2019-03-17T00:37:43.094Z,99.99
2019-03-17T00:38:43.090Z,99.99
2019-03-17T00:39:43.079Z,99.99
2019-03-17T00:40:43.078Z,99.99
2019-03-17T00:41:43.068Z,99.99
2019-03-17T00:42:43.090Z,99.99
2019-03-17T00:43:43.054Z,99.99
2019-03-17T00:44:43.048Z,99.99
2019-03-17T00:45:43.046Z,99.99
2019-03-17T00:46:43.064Z,99.99
2019-03-17T00:47:43.030Z,99.99
2019-03-17T00:48:43.022Z,99.99
2019-03-17T00:49:43.019Z,99.99
2019-03-17T00:50:43.010Z,99.99
2019-03-17T00:51:43.006Z,99.99
2019-03-17T00:52:42.997Z,99.99
2019-03-17T00:53:42.991Z,99.99
2019-03-17T00:54:42.986Z,99.99
2019-03-17T00:55:42.979Z,99.99
2019-03-17T00:56:42.972Z,99.99
2019-03-17T00:57:42.964Z,99.99
2019-03-17T00:58:42.960Z,99.99
2019-03-17T00:59:42.951Z,99.99
2019-03-17T01:00:42.946Z,99.99
2019-03-17T01:01:42.943Z,99.99
2019-03-17T01:02:42.933Z,99.99
2019-03-17T01:03:42.928Z,99.99
2019-03-17T01:04:42.921Z,99.99
2019-03-17T01:05:43.002Z,99.99
2019-03-17T01:06:42.906Z,99.99
2019-03-17T01:07:42.901Z,99.99
2019-03-17T01:08:42.894Z,99.99
2019-03-17T01:09:42.889Z,99.99
2019-03-17T01:10:42.885Z,99.99
2019-03-17T01:11:42.874Z,99.99
2019-03-17T01:12:44.903Z,99.99
2019-03-17T01:13:42.864Z,99.99
2019-03-17T01:14:42.858Z,99.99
2019-03-17T01:15:42.850Z,99.99
2019-03-17T01:16:42.842Z,99.99
2019-03-17T01:17:42.834Z,99.99
2019-03-17T01:18:42.829Z,99.99
2019-03-17T01:19:42.825Z,99.99
2019-03-17T01:20:42.816Z,99.99
2019-03-17T01:21:42.809Z,99.99
2019-03-17T01:22:42.802Z,99.99
2019-03-17T01:23:42.801Z,99.99
2019-03-17T01:24:42.789Z,99.99
2019-03-17T01:25:42.783Z,99.99
2019-03-17T01:26:42.825Z,99.99
2019-03-17T01:27:42.770Z,99.99
2019-03-17T01:28:42.766Z,99.99
2019-03-17T01:29:42.758Z,99.99
2019-03-17T01:30:42.822Z,99.99
2019-03-17T01:31:42.750Z,99.99
2019-03-17T01:32:42.745Z,99.99
2019-03-17T01:33:42.741Z,99.99
2019-03-17T01:34:42.725Z,99.99
2019-03-17T01:35:42.720Z,99.99
2019-03-17T01:36:42.717Z,99.99
2019-03-17T01:37:42.709Z,99.99
2019-03-17T01:38:42.700Z,99.99
2019-03-17T01:39:42.692Z,99.99
2019-03-17T01:40:42.690Z,99.99
2019-03-17T01:41:42.681Z,99.99
2019-03-17T01:42:42.679Z,99.99
2019-03-17T01:43:42.677Z,99.99
2019-03-17T01:44:42.662Z,99.99
2019-03-17T01:45:42.655Z,99.99
2019-03-17T01:46:42.676Z,99.99
2019-03-17T01:47:42.642Z,99.99
2019-03-17T01:48:42.637Z,99.99
2019-03-17T01:49:42.632Z,99.99
2019-03-17T01:50:42.622Z,99.99
2019-03-17T01:51:42.629Z,99.99
2019-03-17T01:52:42.611Z,99.99
2019-03-17T01:53:42.604Z,99.99
2019-03-17T01:54:42.597Z,99.99
2019-03-17T01:55:42.591Z,99.99
2019-03-17T01:56:42.583Z,99.99
2019-03-17T01:57:42.577Z,99.99
2019-03-17T01:58:42.577Z,99.99
2019-03-17T01:59:42.565Z,99.99
2019-03-17T02:00:42.559Z,99.99
2019-03-17T02:01:42.600Z,99.99
2019-03-17T02:02:42.547Z,99.99
2019-03-17T02:03:42.542Z,99.99
2019-03-17T02:04:42.536Z,99.99
2019-03-17T02:05:42.533Z,99.99
2019-03-17T02:06:42.520Z,99.99
2019-03-17T02:07:42.519Z,99.99
2019-03-17T02:08:42.507Z,99.99
2019-03-17T02:09:42.499Z,99.99
2019-03-17T02:10:42.493Z,99.99
2019-03-17T02:11:42.488Z,99.99
2019-03-17T02:12:42.484Z,99.99
2019-03-17T02:13:42.473Z,99.99
2019-03-17T02:14:42.474Z,99.99
2019-03-17T02:15:42.462Z,99.99
2019-03-17T02:16:42.460Z,99.99
2019-03-17T02:17:42.449Z,99.99
2019-03-17T02:18:42.445Z,99.99
2019-03-17T02:19:42.434Z,99.99
2019-03-17T02:20:42.430Z,99.99
2019-03-17T02:21:42.425Z,99.99
2019-03-17T02:22:42.417Z,99.99
2019-03-17T02:23:42.411Z,99.99
2019-03-17T02:24:42.404Z,99.99
2019-03-17T02:25:42.399Z,99.99
2019-03-17T02:26:42.391Z,99.99
2019-03-17T02:27:42.411Z,99.99
2019-03-17T02:28:42.401Z,99.99
2019-03-17T02:29:42.406Z,99.99
2019-03-17T02:30:42.415Z,99.99
2019-03-17T02:31:42.360Z,99.99
2019-03-17T02:32:42.354Z,99.99
2019-03-17T02:33:42.414Z,99.99
2019-03-17T02:34:42.347Z,99.99
2019-03-17T02:35:42.325Z,99.99
2019-03-17T02:36:42.323Z,99.99
2019-03-17T02:37:42.328Z,99.99
2019-03-17T02:38:42.320Z,99.99
2019-03-17T02:39:42.307Z,99.84
2019-03-17T02:40:42.302Z,99.99
2019-03-17T02:41:42.299Z,99.99
2019-03-17T02:42:42.296Z,99.99
2019-03-17T02:43:42.283Z,99.99
2019-03-17T02:44:42.275Z,99.89
2019-03-17T02:45:42.271Z,99.99
2019-03-17T02:46:42.274Z,99.99
2019-03-17T02:47:42.260Z,99.99
2019-03-17T02:48:42.251Z,98.84
2019-03-17T02:49:42.246Z,99.55
2019-03-17T02:50:42.235Z,98.36
2019-03-17T02:51:42.239Z,98.65
2019-03-17T02:52:42.225Z,98.46
2019-03-17T02:53:42.224Z,98.18
2019-03-17T02:54:42.215Z,98.08
2019-03-17T02:55:42.349Z,98.08
2019-03-17T02:56:42.199Z,97.89
2019-03-17T02:57:42.198Z,98.08
2019-03-17T02:58:42.187Z,97.99
2019-03-17T02:59:42.282Z,98.18
2019-03-17T03:00:42.178Z,97.70
2019-03-17T03:01:42.165Z,98.27
2019-03-17T03:02:42.160Z,97.89
2019-03-17T03:03:42.173Z,97.89
2019-03-17T03:04:42.148Z,97.60
2019-03-17T03:05:53.987Z,97.51
2019-03-17T03:06:42.133Z,98.36
2019-03-17T03:07:42.135Z,98.18
2019-03-17T03:08:42.122Z,98.46
2019-03-17T03:09:42.118Z,97.79
2019-03-17T03:10:42.109Z,97.89
2019-03-17T03:11:42.102Z,96.84
2019-03-17T03:12:42.099Z,96.75
2019-03-17T03:13:42.088Z,97.70
2019-03-17T03:14:42.086Z,97.60
2019-03-17T03:15:42.077Z,97.93
2019-03-17T03:16:42.070Z,97.46
2019-03-17T03:17:42.069Z,97.79
2019-03-17T03:18:42.059Z,97.13
2019-03-17T03:19:42.064Z,96.94
2019-03-17T03:20:42.044Z,96.46
2019-03-17T03:21:42.036Z,96.84
2019-03-17T03:22:42.031Z,97.22
2019-03-17T03:23:42.026Z,96.75
2019-03-17T03:24:42.018Z,96.55
2019-03-17T03:25:42.011Z,97.13
2019-03-17T03:26:42.006Z,96.55
2019-03-17T03:27:41.999Z,97.51
2019-03-17T03:28:41.993Z,97.03
2019-03-17T03:29:41.999Z,96.65
2019-03-17T03:30:42.001Z,96.75
2019-03-17T03:31:41.980Z,96.55
2019-03-17T03:32:41.993Z,96.55
2019-03-17T03:33:41.961Z,96.65
2019-03-17T03:34:41.957Z,96.79
2019-03-17T03:35:41.948Z,96.46
2019-03-17T03:36:41.940Z,95.60
2019-03-17T03:37:41.944Z,96.08
2019-03-17T03:38:41.929Z,96.36
2019-03-17T03:39:41.922Z,96.55
2019-03-17T03:40:41.914Z,97.03
2019-03-17T03:41:41.907Z,97.03
2019-03-17T03:42:41.901Z,96.55
2019-03-17T03:43:41.912Z,96.36
2019-03-17T03:44:41.888Z,97.13
2019-03-17T03:45:41.881Z,95.94
2019-03-17T03:46:41.875Z,96.84
2019-03-17T03:47:41.870Z,96.51
2019-03-17T03:48:41.865Z,95.98
2019-03-17T03:49:41.855Z,95.98
2019-03-17T03:50:41.851Z,96.08
2019-03-17T03:51:41.855Z,96.08
2019-03-17T03:52:41.842Z,95.98
2019-03-17T03:53:41.830Z,96.27
2019-03-17T03:54:41.824Z,95.79
2019-03-17T03:55:42.488Z,96.08
2019-03-17T03:56:41.812Z,96.08
2019-03-17T03:57:41.809Z,95.60
2019-03-17T03:58:41.797Z,96.27
2019-03-17T03:59:41.792Z,96.84
2019-03-17T04:00:41.784Z,96.36
2019-03-17T04:01:41.777Z,96.65
2019-03-17T04:02:41.782Z,96.51
2019-03-17T04:03:41.768Z,96.36
2019-03-17T04:04:41.758Z,97.13
2019-03-17T04:05:41.756Z,96.94
2019-03-17T04:06:41.746Z,96.84
2019-03-17T04:07:41.742Z,96.94
2019-03-17T04:08:41.736Z,96.36
2019-03-17T04:09:41.726Z,95.98
2019-03-17T04:10:41.722Z,96.46
2019-03-17T04:11:41.716Z,96.94
2019-03-17T04:12:41.719Z,96.46
2019-03-17T04:13:41.728Z,96.65
2019-03-17T04:14:41.714Z,96.46
2019-03-17T04:15:41.692Z,96.36
2019-03-17T04:16:41.682Z,96.55
2019-03-17T04:17:41.674Z,96.27
2019-03-17T04:18:41.666Z,96.75
2019-03-17T04:19:41.662Z,96.36
2019-03-17T04:20:41.656Z,96.46
2019-03-17T04:21:41.654Z,96.75
2019-03-17T04:22:41.648Z,96.46
2019-03-17T04:23:41.639Z,96.46
2019-03-17T04:24:41.673Z,96.36
2019-03-17T04:25:41.622Z,97.13
2019-03-17T04:26:41.616Z,96.84
2019-03-17T04:27:41.610Z,96.84
2019-03-17T04:28:41.607Z,96.94
2019-03-17T04:29:41.602Z,96.65
2019-03-17T04:30:41.590Z,96.84
2019-03-17T04:31:41.584Z,97.31
2019-03-17T04:32:41.590Z,97.46
2019-03-17T04:33:41.571Z,97.46
2019-03-17T04:34:41.564Z,98.08
2019-03-17T04:35:41.557Z,98.03
2019-03-17T04:36:41.554Z,98.03
2019-03-17T04:37:41.545Z,97.46
2019-03-17T04:38:43.839Z,97.46
2019-03-17T04:39:41.539Z,98.13
2019-03-17T04:40:41.524Z,97.55
2019-03-17T04:41:41.518Z,98.13
2019-03-17T04:42:41.509Z,97.27
2019-03-17T04:43:41.506Z,97.36
2019-03-17T04:44:41.501Z,97.55
2019-03-17T04:45:41.492Z,98.13
2019-03-17T04:46:41.486Z,97.93
2019-03-17T04:47:41.485Z,97.93
2019-03-17T04:48:41.538Z,98.41
2019-03-17T04:49:41.466Z,98.13
2019-03-17T04:50:41.460Z,98.50
2019-03-17T04:51:41.454Z,98.60
2019-03-17T04:52:41.447Z,97.84
2019-03-17T04:53:41.441Z,97.84
2019-03-17T04:54:41.439Z,98.22
2019-03-17T04:55:41.427Z,98.13
2019-03-17T04:56:41.422Z,98.79
2019-03-17T04:57:41.413Z,98.88
2019-03-17T04:58:41.407Z,98.88
2019-03-17T04:59:41.403Z,99.27
2019-03-17T05:00:41.395Z,99.08
2019-03-17T05:01:41.388Z,98.88
2019-03-17T05:02:41.381Z,98.69
2019-03-17T05:03:41.376Z,98.88
2019-03-17T05:04:41.368Z,98.22
2019-03-17T05:05:41.361Z,98.60
2019-03-17T05:06:51.947Z,98.88
2019-03-17T05:07:41.349Z,98.79
2019-03-17T05:08:41.344Z,98.60
2019-03-17T05:09:41.335Z,98.41
2019-03-17T05:10:41.329Z,98.13
2019-03-17T05:11:41.322Z,97.74
2019-03-17T05:12:41.315Z,98.50
2019-03-17T05:13:41.309Z,97.74
2019-03-17T05:14:41.302Z,97.65
2019-03-17T05:15:41.296Z,97.93
2019-03-17T05:16:41.287Z,97.65
2019-03-17T05:17:41.280Z,97.84
2019-03-17T05:18:41.274Z,98.50
2019-03-17T05:19:41.267Z,97.93
2019-03-17T05:20:41.261Z,98.13
2019-03-17T05:21:41.257Z,98.13
2019-03-17T05:22:41.248Z,97.65
2019-03-17T05:23:41.241Z,97.46
2019-03-17T05:24:41.235Z,97.93
2019-03-17T05:25:41.228Z,97.36
2019-03-17T05:26:41.221Z,97.55
2019-03-17T05:27:41.214Z,96.89
2019-03-17T05:28:41.212Z,96.79
2019-03-17T05:29:41.201Z,97.46
2019-03-17T05:30:41.195Z,97.27
2019-03-17T05:31:41.190Z,97.27
2019-03-17T05:32:41.183Z,97.46
2019-03-17T05:33:41.174Z,96.98
2019-03-17T05:34:41.169Z,97.36
2019-03-17T05:35:41.166Z,98.22
2019-03-17T05:36:41.226Z,98.22
2019-03-17T05:37:41.152Z,97.93
2019-03-17T05:38:41.142Z,97.46
2019-03-17T05:39:41.137Z,97.46
2019-03-17T05:40:41.128Z,97.46
2019-03-17T05:41:41.125Z,97.17
2019-03-17T05:42:41.250Z,97.27
2019-03-17T05:43:41.115Z,96.60
2019-03-17T05:44:41.103Z,96.60
2019-03-17T05:45:41.098Z,96.94
2019-03-17T05:46:41.090Z,97.13
2019-03-17T05:47:41.083Z,97.08
2019-03-17T05:48:41.076Z,96.79
2019-03-17T05:49:41.073Z,97.27
2019-03-17T05:50:41.062Z,97.27
2019-03-17T05:51:41.056Z,97.36
2019-03-17T05:52:41.049Z,97.55
2019-03-17T05:53:41.042Z,97.46
2019-03-17T05:54:41.036Z,96.89
2019-03-17T05:55:41.032Z,97.51
2019-03-17T05:56:41.024Z,97.84
2019-03-17T05:57:41.018Z,98.13
2019-03-17T05:58:41.009Z,98.13
2019-03-17T05:59:41.005Z,96.98
2019-03-17T06:00:40.997Z,96.89
2019-03-17T06:01:40.989Z,96.55
2019-03-17T06:02:40.988Z,96.79
2019-03-17T06:03:40.978Z,96.89
2019-03-17T06:04:40.972Z,96.36
2019-03-17T06:05:40.967Z,96.94
2019-03-17T06:06:40.957Z,96.46
2019-03-17T06:07:40.951Z,96.65
2019-03-17T06:08:40.945Z,97.03
2019-03-17T06:09:40.938Z,96.94
2019-03-17T06:10:41.001Z,96.55
2019-03-17T06:11:40.928Z,96.84
2019-03-17T06:12:40.922Z,97.03
2019-03-17T06:13:40.913Z,96.94
2019-03-17T06:14:40.906Z,96.36
2019-03-17T06:15:40.901Z,96.36
2019-03-17T06:16:40.893Z,95.70
2019-03-17T06:17:40.888Z,95.98
2019-03-17T06:18:40.879Z,95.98
2019-03-17T06:19:40.875Z,96.27
2019-03-17T06:20:40.866Z,96.08
2019-03-17T06:21:40.860Z,95.98
2019-03-17T06:22:40.858Z,96.27
2019-03-17T06:23:40.859Z,96.36
2019-03-17T06:24:40.843Z,96.55
2019-03-17T06:25:40.833Z,96.36
2019-03-17T06:26:40.826Z,95.70
2019-03-17T06:27:40.823Z,95.41
2019-03-17T06:28:40.818Z,95.79
2019-03-17T06:29:40.813Z,95.79
2019-03-17T06:30:40.804Z,96.46
2019-03-17T06:31:40.795Z,96.46
2019-03-17T06:32:40.790Z,96.08
2019-03-17T06:33:40.782Z,95.60
2019-03-17T06:34:40.777Z,95.60
2019-03-17T06:35:40.771Z,95.89
2019-03-17T06:36:40.767Z,95.22
2019-03-17T06:37:40.761Z,95.89
2019-03-17T06:38:40.753Z,95.79
2019-03-17T06:39:40.744Z,95.79
2019-03-17T06:40:40.744Z,95.60
2019-03-17T06:41:40.732Z,95.98
2019-03-17T06:42:40.726Z,95.32
2019-03-17T06:43:40.724Z,95.41
2019-03-17T06:44:40.720Z,95.41
2019-03-17T06:45:40.708Z,95.51
2019-03-17T06:46:40.702Z,95.03
2019-03-17T06:47:40.699Z,95.32
2019-03-17T06:48:40.696Z,95.41
2019-03-17T06:49:40.684Z,95.22
2019-03-17T06:50:40.674Z,95.12
2019-03-17T06:51:40.671Z,95.03
2019-03-17T06:52:40.665Z,95.03
2019-03-17T06:53:40.660Z,94.93
2019-03-17T06:54:40.653Z,94.93
2019-03-17T06:55:40.647Z,94.74
2019-03-17T06:56:40.647Z,94.13
2019-03-17T06:57:40.634Z,94.27
2019-03-17T06:58:40.628Z,94.37
2019-03-17T06:59:40.623Z,93.46
2019-03-17T07:00:40.616Z,93.84
2019-03-17T07:01:40.611Z,94.13
2019-03-17T07:02:40.602Z,94.22
2019-03-17T07:03:40.597Z,93.46
2019-03-17T07:04:40.594Z,93.55
2019-03-17T07:05:40.585Z,93.55
2019-03-17T07:06:40.579Z,93.46
2019-03-17T07:07:44.428Z,93.55
2019-03-17T07:08:40.570Z,93.08
2019-03-17T07:09:40.561Z,93.17
2019-03-17T07:10:40.554Z,93.08
2019-03-17T07:11:40.551Z,93.08
2019-03-17T07:12:40.543Z,93.46
2019-03-17T07:13:40.551Z,93.74
2019-03-17T07:14:40.531Z,94.13
2019-03-17T07:15:40.528Z,93.27
2019-03-17T07:16:40.519Z,93.65
2019-03-17T07:17:40.516Z,93.17
2019-03-17T07:18:40.507Z,93.27
2019-03-17T07:19:40.503Z,92.69
2019-03-17T07:20:40.500Z,93.27
2019-03-17T07:21:40.491Z,93.27
2019-03-17T07:22:40.484Z,93.65
2019-03-17T07:23:40.481Z,93.55
2019-03-17T07:24:40.478Z,93.55
2019-03-17T07:25:40.466Z,93.74
2019-03-17T07:26:40.470Z,93.37
2019-03-17T07:27:40.462Z,93.55
2019-03-17T07:28:40.451Z,94.41
2019-03-17T07:29:40.442Z,93.74
2019-03-17T07:30:40.437Z,93.74
2019-03-17T07:31:40.432Z,93.27
2019-03-17T07:32:40.424Z,92.22
2019-03-17T07:33:40.463Z,92.27
2019-03-17T07:34:40.416Z,92.08
2019-03-17T07:35:40.410Z,91.79
2019-03-17T07:36:40.406Z,91.98
2019-03-17T07:37:40.397Z,92.27
2019-03-17T07:38:40.395Z,91.98
2019-03-17T07:39:40.385Z,91.50
2019-03-17T07:40:40.380Z,91.13
2019-03-17T07:41:40.395Z,91.13
2019-03-17T07:42:40.368Z,91.60
2019-03-17T07:43:40.365Z,91.17
2019-03-17T07:44:40.358Z,90.79
2019-03-17T07:45:40.352Z,90.26
2019-03-17T07:46:40.346Z,89.64
2019-03-17T07:47:40.349Z,89.93
2019-03-17T07:48:40.336Z,89.93
2019-03-17T07:49:40.332Z,90.03
2019-03-17T07:50:40.325Z,89.93
2019-03-17T07:51:40.339Z,90.17
2019-03-17T07:52:40.317Z,90.36
2019-03-17T07:53:40.314Z,90.26
2019-03-17T07:54:40.306Z,90.08
2019-03-17T07:55:40.307Z,90.26
2019-03-17T07:56:40.304Z,91.22
2019-03-17T07:57:40.288Z,91.13
2019-03-17T07:58:40.284Z,90.45
2019-03-17T07:59:40.277Z,90.93
2019-03-17T08:00:40.273Z,91.41
2019-03-17T08:01:40.267Z,91.41
2019-03-17T08:02:40.261Z,91.60
2019-03-17T08:03:40.259Z,91.50
2019-03-17T08:04:43.000Z,90.93
2019-03-17T08:05:40.244Z,91.13
2019-03-17T08:06:40.241Z,91.41
2019-03-17T08:07:40.238Z,91.31
2019-03-17T08:08:40.289Z,90.98
2019-03-17T08:09:40.226Z,90.69
2019-03-17T08:10:40.242Z,90.69
2019-03-17T08:11:40.215Z,89.83
2019-03-17T08:12:40.212Z,89.69
2019-03-17T08:13:40.201Z,89.50
2019-03-17T08:14:40.196Z,89.74
2019-03-17T08:15:40.192Z,89.83
2019-03-17T08:16:40.193Z,89.74
2019-03-17T08:17:40.181Z,89.17
2019-03-17T08:18:40.176Z,89.54
2019-03-17T08:19:40.217Z,89.07
2019-03-17T08:20:40.164Z,88.50
2019-03-17T08:21:43.114Z,88.02
2019-03-17T08:22:40.251Z,87.93
2019-03-17T08:23:40.152Z,87.54
2019-03-17T08:24:40.144Z,87.21
2019-03-17T08:25:40.137Z,87.21
2019-03-17T08:26:40.132Z,87.30
2019-03-17T08:27:40.129Z,87.30
2019-03-17T08:28:40.123Z,86.54
2019-03-17T08:29:40.121Z,85.82
2019-03-17T08:30:52.094Z,84.86
2019-03-17T08:31:40.107Z,84.67
2019-03-17T08:32:41.439Z,84.48
2019-03-17T08:33:40.099Z,84.29
2019-03-17T08:34:40.093Z,83.91
2019-03-17T08:35:40.088Z,84.29
2019-03-17T08:36:40.083Z,84.29
2019-03-17T08:37:40.078Z,83.81
2019-03-17T08:38:40.072Z,83.72
2019-03-17T08:39:40.072Z,83.09
2019-03-17T08:40:40.065Z,82.90
2019-03-17T08:41:40.112Z,82.32
2019-03-17T08:42:40.055Z,81.85
2019-03-17T08:43:40.051Z,82.52
2019-03-17T08:44:40.050Z,82.42
2019-03-17T08:45:40.043Z,81.47
2019-03-17T08:46:40.038Z,81.56
2019-03-17T08:47:40.032Z,81.76
2019-03-17T08:48:40.030Z,81.09
2019-03-17T08:49:40.023Z,81.18
2019-03-17T08:50:40.022Z,80.65
2019-03-17T08:51:40.017Z,80.61
2019-03-17T08:52:40.012Z,80.46
2019-03-17T08:53:40.007Z,81.03
2019-03-17T08:54:40.005Z,80.41
2019-03-17T08:55:40.002Z,80.74
2019-03-17T08:56:39.996Z,80.84
2019-03-17T08:57:39.995Z,81.51
2019-03-17T08:58:39.988Z,80.46
2019-03-17T08:59:39.986Z,79.98
2019-03-17T09:00:39.982Z,80.22
2019-03-17T09:01:39.977Z,80.13
2019-03-17T09:02:39.972Z,81.27
2019-03-17T09:03:39.970Z,81.27
2019-03-17T09:04:39.969Z,81.37
2019-03-17T09:05:39.961Z,82.04
2019-03-17T09:06:39.957Z,82.67
2019-03-17T09:07:39.955Z,82.95
2019-03-17T09:08:39.956Z,82.19
2019-03-17T09:09:39.943Z,82.57
2019-03-17T09:10:39.941Z,83.05
2019-03-17T09:11:39.937Z,82.67
2019-03-17T09:12:39.935Z,83.05
2019-03-17T09:13:39.930Z,83.24
2019-03-17T09:14:39.925Z,83.72
2019-03-17T09:15:39.920Z,83.43
2019-03-17T09:16:39.927Z,83.62
2019-03-17T09:17:40.054Z,83.24
2019-03-17T09:18:39.908Z,82.67
2019-03-17T09:19:39.906Z,82.95
2019-03-17T09:20:40.077Z,82.86
2019-03-17T09:21:39.897Z,83.09
2019-03-17T09:22:39.894Z,83.24
2019-03-17T09:23:42.554Z,82.04
2019-03-17T09:24:39.883Z,82.61
2019-03-17T09:25:39.882Z,82.42
2019-03-17T09:26:39.875Z,82.32
2019-03-17T09:27:39.876Z,82.00
2019-03-17T09:28:39.872Z,82.52
2019-03-17T09:29:39.862Z,82.23
2019-03-17T09:30:40.602Z,82.42
2019-03-17T09:31:39.853Z,83.09
2019-03-17T09:32:39.849Z,83.38
2019-03-17T09:33:39.844Z,83.18
2019-03-17T09:34:40.079Z,81.95
2019-03-17T09:35:39.836Z,81.66
2019-03-17T09:36:39.839Z,81.66
2019-03-17T09:37:39.828Z,81.76
2019-03-17T09:38:47.111Z,81.41
2019-03-17T09:39:39.834Z,81.89
2019-03-17T09:40:39.814Z,82.37
2019-03-17T09:41:39.940Z,81.22
2019-03-17T09:42:40.323Z,80.93
2019-03-17T09:43:39.815Z,80.84
2019-03-17T09:44:39.805Z,80.27
2019-03-17T09:45:39.797Z,78.93
2019-03-17T09:46:39.791Z,78.93
2019-03-17T09:47:41.171Z,78.36
2019-03-17T09:48:39.858Z,78.64
2019-03-17T09:49:39.777Z,78.68
2019-03-17T09:50:39.935Z,78.78
2019-03-17T09:51:39.770Z,78.49
2019-03-17T09:52:39.767Z,77.72
2019-03-17T09:53:39.764Z,77.72
2019-03-17T09:54:39.762Z,77.15
2019-03-17T09:55:39.756Z,77.53
2019-03-17T09:56:39.753Z,78.39
2019-03-17T09:57:39.747Z,77.78
2019-03-17T09:58:39.744Z,78.16
2019-03-17T09:59:39.741Z,77.87
2019-03-17T10:00:39.791Z,77.97
2019-03-17T10:01:39.739Z,78.64
2019-03-17T10:02:39.730Z,78.83
2019-03-17T10:03:39.728Z,78.93
2019-03-17T10:04:39.723Z,78.93
2019-03-17T10:05:39.824Z,78.64
2019-03-17T10:06:39.716Z,79.79
2019-03-17T10:07:39.712Z,78.93
2019-03-17T10:08:39.708Z,79.02
2019-03-17T10:09:39.704Z,78.99
2019-03-17T10:10:39.702Z,78.74
2019-03-17T10:11:39.699Z,79.12
2019-03-17T10:12:39.695Z,79.02
2019-03-17T10:13:39.690Z,78.93
2019-03-17T10:14:39.690Z,78.93
2019-03-17T10:15:39.841Z,78.74
2019-03-17T10:16:40.368Z,78.89
2019-03-17T10:17:39.676Z,79.36
2019-03-17T10:18:39.673Z,79.31
2019-03-17T10:19:39.675Z,80.07
2019-03-17T10:20:39.669Z,80.17
2019-03-17T10:21:39.668Z,79.41
2019-03-17T10:22:39.892Z,78.99
2019-03-17T10:23:39.689Z,78.51
2019-03-17T10:24:39.904Z,79.46
2019-03-17T10:25:39.692Z,79.46
2019-03-17T10:26:39.822Z,79.56
2019-03-17T10:27:39.764Z,79.27
2019-03-17T10:28:39.812Z,79.46
2019-03-17T10:29:39.673Z,78.99
2019-03-17T10:30:39.774Z,79.65
2019-03-17T10:31:39.623Z,79.08
2019-03-17T10:32:39.620Z,79.17
2019-03-17T10:33:39.617Z,79.17
2019-03-17T10:34:39.612Z,79.75
2019-03-17T10:35:39.615Z,79.94
2019-03-17T10:36:39.605Z,80.32
2019-03-17T10:37:39.600Z,79.85
2019-03-17T10:38:39.715Z,79.36
2019-03-17T10:39:39.593Z,78.99
2019-03-17T10:40:39.590Z,79.56
2019-03-17T10:41:39.587Z,80.17
2019-03-17T10:42:39.620Z,80.13
2019-03-17T10:43:39.581Z,80.04
2019-03-17T10:44:39.576Z,79.17
2019-03-17T10:45:39.651Z,79.17
2019-03-17T10:46:39.585Z,79.46
2019-03-17T10:47:39.567Z,79.36
2019-03-17T10:48:39.752Z,79.65
2019-03-17T10:49:39.741Z,79.17
2019-03-17T10:50:49.118Z,79.46
2019-03-17T10:51:39.547Z,79.85
2019-03-17T10:52:39.548Z,80.22
2019-03-17T10:53:39.544Z,79.56
2019-03-17T10:54:39.539Z,80.13
2019-03-17T10:55:39.533Z,79.75
2019-03-17T10:56:39.529Z,80.04
2019-03-17T10:57:39.530Z,79.94
2019-03-17T10:58:39.526Z,79.85
2019-03-17T10:59:39.521Z,79.85
2019-03-17T11:00:39.514Z,80.04
2019-03-17T11:01:40.128Z,79.94
2019-03-17T11:02:39.506Z,80.04
2019-03-17T11:03:39.508Z,80.90
2019-03-17T11:04:39.500Z,79.94
2019-03-17T11:05:39.497Z,79.85
2019-03-17T11:06:39.491Z,80.04
2019-03-17T11:07:39.488Z,80.27
2019-03-17T11:08:39.493Z,79.69
2019-03-17T11:09:39.480Z,79.88
2019-03-17T11:10:39.476Z,79.88
2019-03-17T11:11:39.486Z,79.08
2019-03-17T11:12:39.470Z,78.64
2019-03-17T11:13:39.466Z,78.93
2019-03-17T11:14:39.463Z,78.74
2019-03-17T11:15:39.473Z,79.12
2019-03-17T11:16:39.455Z,79.02
2019-03-17T11:17:39.454Z,77.78
2019-03-17T11:18:39.447Z,77.92
2019-03-17T11:19:39.448Z,77.82
2019-03-17T11:20:39.444Z,77.72
2019-03-17T11:21:39.438Z,76.96
2019-03-17T11:22:39.435Z,76.77
2019-03-17T11:23:39.432Z,76.96
2019-03-17T11:24:39.431Z,76.77
2019-03-17T11:25:39.423Z,77.44
2019-03-17T11:26:39.420Z,76.96
2019-03-17T11:27:39.422Z,77.25
2019-03-17T11:28:39.420Z,76.67
2019-03-17T11:29:39.411Z,76.86
2019-03-17T11:30:39.407Z,76.39
2019-03-17T11:31:39.406Z,77.34
2019-03-17T11:32:39.401Z,77.44
2019-03-17T11:33:39.399Z,76.86
2019-03-17T11:34:39.398Z,77.06
2019-03-17T11:35:39.393Z,76.96
2019-03-17T11:36:39.389Z,77.53
2019-03-17T11:37:39.385Z,77.15
2019-03-17T11:38:39.382Z,77.15
2019-03-17T11:39:39.379Z,77.15
2019-03-17T11:40:39.383Z,77.15
2019-03-17T11:41:39.372Z,76.86
2019-03-17T11:42:39.370Z,77.53
2019-03-17T11:43:39.368Z,77.63
2019-03-17T11:44:39.368Z,77.72
2019-03-17T11:45:39.360Z,77.34
2019-03-17T11:46:39.360Z,78.16
2019-03-17T11:47:39.354Z,78.36
2019-03-17T11:48:39.355Z,77.97
2019-03-17T11:49:39.350Z,78.16
2019-03-17T11:50:39.347Z,78.83
2019-03-17T11:51:39.342Z,78.64
2019-03-17T11:52:39.339Z,78.93
2019-03-17T11:53:39.335Z,79.12
2019-03-17T11:54:39.334Z,79.02
2019-03-17T11:55:39.410Z,78.74
2019-03-17T11:56:39.335Z,79.31
2019-03-17T11:57:39.321Z,79.50
2019-03-17T11:58:39.318Z,79.17
2019-03-17T11:59:39.321Z,79.65
2019-03-17T12:00:39.314Z,79.88
2019-03-17T12:01:39.309Z,80.17
2019-03-17T12:02:39.309Z,80.17
2019-03-17T12:03:39.302Z,80.32
2019-03-17T12:04:39.301Z,79.85
2019-03-17T12:05:39.295Z,79.94
2019-03-17T12:06:39.290Z,79.85
2019-03-17T12:07:39.292Z,80.32
2019-03-17T12:08:39.286Z,80.13
2019-03-17T12:09:49.727Z,80.07
2019-03-17T12:10:39.278Z,80.07
2019-03-17T12:11:39.275Z,79.98
2019-03-17T12:12:39.268Z,79.98
2019-03-17T12:13:39.267Z,79.50
2019-03-17T12:14:39.263Z,79.12
2019-03-17T12:15:39.264Z,78.55
2019-03-17T12:16:39.257Z,79.31
2019-03-17T12:17:39.254Z,79.02
2019-03-17T12:18:39.250Z,78.58
2019-03-17T12:19:39.249Z,78.30
2019-03-17T12:20:39.245Z,78.49
2019-03-17T12:21:39.240Z,78.20
2019-03-17T12:22:39.241Z,77.95
2019-03-17T12:23:39.234Z,78.20
2019-03-17T12:24:39.236Z,78.11
2019-03-17T12:25:39.235Z,76.86
2019-03-17T12:26:39.228Z,77.25
2019-03-17T12:27:39.221Z,77.15
2019-03-17T12:28:39.225Z,77.63
2019-03-17T12:29:39.216Z,78.01
2019-03-17T12:30:39.217Z,78.16
2019-03-17T12:31:39.287Z,78.26
2019-03-17T12:32:39.207Z,78.36
2019-03-17T12:33:39.204Z,78.36
2019-03-17T12:34:39.204Z,79.85
2019-03-17T12:35:39.196Z,79.85
2019-03-17T12:36:39.196Z,79.85
2019-03-17T12:37:39.196Z,79.94
2019-03-17T12:38:39.193Z,80.36
2019-03-17T12:39:39.186Z,80.41
2019-03-17T12:40:39.184Z,79.94
2019-03-17T12:41:39.177Z,80.80
2019-03-17T12:42:39.172Z,81.37
2019-03-17T12:43:39.172Z,81.66
2019-03-17T12:44:39.169Z,81.85
2019-03-17T12:45:39.164Z,81.47
2019-03-17T12:46:39.161Z,82.42
2019-03-17T12:47:39.154Z,82.57
2019-03-17T12:48:39.154Z,83.01
2019-03-17T12:49:39.150Z,84.40
2019-03-17T12:50:39.147Z,88.45
2019-03-17T12:51:39.143Z,91.27
2019-03-17T12:52:39.230Z,92.60